Flight Track Log - Related Links

Times and Time Zones

All times are in EDT time to prevent confusion due to time zone crossing. See the N700DQ flight status page for this flight to view local times or setup timezone preferences in your user account.

Time Position Orientation Groundspeed Altitude Reporting Facility
EDT Latitude Longitude Course Direction KTS MPH feet Rate Location/Type
Wed 05:33:31 AM 45.5317 -122.9683 151° Southeast 100 115 1,900  Level Seattle Center
Wed 05:34:26 AM 45.5069 -122.9486 151° Southeast 129 148 3,000 1,252 Climbing Seattle Center
Wed 05:35:26 AM 45.4600 -122.9444 176° South 162 186 4,300 1,400 Climbing Seattle Center
Wed 05:36:26 AM 45.4144 -122.9247 163° South 167 192 5,800 1,438 Climbing Seattle Center
Wed 05:37:27 AM 45.3678 -122.9067 165° South 172 198 7,200 1,289 Climbing Seattle Center
Wed 05:38:27 AM 45.3181 -122.8856 163° South 181 208 8,400 1,300 Climbing Seattle Center
Wed 05:39:27 AM 45.2664 -122.8669 166° South 190 219 9,800 1,300 Climbing Seattle Center
Wed 05:40:27 AM 45.2156 -122.8469 165° South 188 216 11,000 1,300 Climbing Seattle Center
Wed 05:41:27 AM 45.1631 -122.8264 165° South 192 221 12,400 1,400 Climbing Seattle Center
Wed 05:42:27 AM 45.1122 -122.8081 166° South 189 217 13,800 1,400 Climbing Seattle Center
Wed 05:43:27 AM 45.0586 -122.7911 167° South 194 223 15,200 1,300 Climbing Seattle Center
Wed 05:44:27 AM 45.0075 -122.7733 166° South 191 220 16,400 1,200 Climbing Seattle Center
Wed 05:45:27 AM 44.9542 -122.7561 167° South 194 223 17,600 1,200 Climbing Seattle Center
Wed 05:46:27 AM 44.8992 -122.7383 167° South 200 230 18,800 1,190 Climbing Seattle Center
Wed 05:47:28 AM 44.8453 -122.7197 166° South 199 229 20,000 1,091 Climbing Seattle Center
Wed 05:48:28 AM 44.7914 -122.7022 167° South 199 229 21,000 1,150 Climbing Seattle Center
Wed 05:49:28 AM 44.7367 -122.6847 167° South 200 230 22,300 1,150 Climbing Seattle Center
Wed 05:50:28 AM 44.6814 -122.6672 167° South 202 232 23,300 1,200 Climbing Seattle Center
Wed 05:51:28 AM 44.6147 -122.6464 167° South 206 237 24,700 850 Climbing Seattle Center
Wed 05:52:28 AM 44.5581 -122.6281 167° South 207 238 25,000 150 Climbing Seattle Center
Wed 05:53:28 AM 44.4922 -122.6047 166° South 236 272 25,000  Level Seattle Center
Wed 05:54:28 AM 44.4244 -122.5836 167° South 246 283 25,000  Level Seattle Center
Wed 05:55:28 AM 44.3586 -122.5625 167° South 244 281 25,000  Level Seattle Center
Wed 05:56:28 AM 44.3078 -122.5461 167° South 240 276 25,000  Level Seattle Center
Wed 05:57:28 AM 44.2456 -122.5272 168° South 232 267 25,000  Level Seattle Center
Wed 05:58:29 AM 44.1828 -122.5064 167° South 231 266 25,000  Level Seattle Center
Wed 05:59:29 AM 44.1200 -122.4869 167° South 230 265 25,000  Level Seattle Center
Wed 06:00:29 AM 44.0581 -122.4678 167° South 229 264 25,000  Level Seattle Center
Wed 06:01:29 AM 43.9958 -122.4481 167° South 228 262 25,000  Level Seattle Center
Wed 06:02:29 AM 43.9328 -122.4269 166° South 231 266 25,000  Level Seattle Center
Wed 06:03:29 AM 43.8717 -122.4094 168° South 225 259 25,000  Level Seattle Center
Wed 06:04:29 AM 43.8117 -122.3894 166° South 222 255 25,000  Level Seattle Center
Wed 06:05:29 AM 43.7517 -122.3714 168° South 221 254 25,000  Level Seattle Center
Wed 06:06:29 AM 43.6919 -122.3525 167° South 220 253 25,000  Level Seattle Center
Wed 06:07:29 AM 43.6336 -122.3333 167° South 217 250 25,000  Level Seattle Center
Wed 06:08:29 AM 43.5747 -122.3167 168° South 216 249 25,000  Level Seattle Center
Wed 06:09:30 AM 43.5161 -122.2978 167° South 216 249 25,000 -198 Level Seattle Center
Wed 06:10:30 AM 43.4558 -122.2806 168° South 220 253 24,600 -650 Descending Seattle Center
Wed 06:11:30 AM 43.3947 -122.2608 167° South 224 258 23,700 -900 Descending Seattle Center
Wed 06:12:30 AM 43.3325 -122.2419 168° South 228 262 22,800 -950 Descending Seattle Center
Wed 06:13:30 AM 43.2656 -122.2228 168° South 243 280 21,800 -1,050 Descending Seattle Center
Wed 06:14:30 AM 43.1983 -122.1975 165° South 250 288 20,700 -1,150 Descending Seattle Center
Wed 06:15:30 AM 43.1300 -122.1786 169° South 251 289 19,500 -1,200 Descending Seattle Center
Wed 06:16:30 AM 43.0603 -122.1639 171° South 252 290 18,300 -1,150 Descending Seattle Center
Wed 06:17:30 AM 42.9897 -122.1411 167° South 260 299 17,200 -1,140 Descending Seattle Center
Wed 06:18:31 AM 42.9189 -122.1183 167° South 261 300 16,000 -1,240 Descending Seattle Center
Wed 06:19:31 AM 42.8489 -122.0983 168° South 258 297 14,700 -1,150 Descending Seattle Center
Wed 06:20:31 AM 42.7806 -122.0778 168° South 251 289 13,700 -1,100 Descending Seattle Center
Wed 06:21:31 AM 42.7133 -122.0556 166° South 247 284 12,500 -1,200 Descending Seattle Center
Wed 06:22:31 AM 42.6447 -122.0356 168° South 252 290 11,300 -1,000 Descending Seattle Center
Wed 06:23:31 AM 42.5669 -122.0097 166° South 252 290 10,500 -800 Descending Seattle Center

Login

Don't have an account? Register now (free) for customized features, flight alerts, and more!